This is the latest recevied weather packets stored in our database for station/object DO1MIT-10. If no packets are shown the sender has not sent any weather packets the latest 10 day(s).
| Time | Temp. | Humidity | Pressure | Rain* | Wind** | Luminosity | Snow |
|---|---|---|---|---|---|---|---|
| 1777524559 | 1.11° C | 61% | 1034.4 hPa | - | - | - | - |
| 1777523658 | 0.56° C | 62% | 1034.2 hPa | - | - | - | - |
| 1777522758 | 0° C | 61% | 1034.1 hPa | - | - | - | - |
| 1777521858 | -0.56° C | 61% | 1034 hPa | - | - | - | - |
| 1777520958 | -0.56° C | 61% | 1034 hPa | - | - | - | - |
| 1777520058 | -0.56° C | 60% | 1033.9 hPa | - | - | - | - |
| 1777519158 | -0.56° C | 60% | 1033.8 hPa | - | - | - | - |
| 1777518258 | -0.56° C | 60% | 1033.8 hPa | - | - | - | - |
| 1777517358 | -0.56° C | 60% | 1033.7 hPa | - | - | - | - |
| 1777516458 | -0.56° C | 59% | 1033.8 hPa | - | - | - | - |
| 1777515557 | 0° C | 59% | 1033.8 hPa | - | - | - | - |
| 1777514657 | 0° C | 58% | 1033.8 hPa | - | - | - | - |
| 1777513757 | 0° C | 58% | 1033.7 hPa | - | - | - | - |
| 1777512857 | 0° C | 58% | 1033.6 hPa | - | - | - | - |
| 1777511957 | 0.56° C | 57% | 1033.6 hPa | - | - | - | - |
| 1777511057 | 0.56° C | 57% | 1033.5 hPa | - | - | - | - |
| 1777510157 | 0.56° C | 56% | 1033.4 hPa | - | - | - | - |
| 1777509257 | 0.56° C | 56% | 1033.2 hPa | - | - | - | - |
| 1777508357 | 1.11° C | 55% | 1033.2 hPa | - | - | - | - |
| 1777507456 | 1.11° C | 55% | 1033.3 hPa | - | - | - | - |
| 1777506556 | 1.11° C | 55% | 1033.2 hPa | - | - | - | - |
| 1777505656 | 1.67° C | 54% | 1033.3 hPa | - | - | - | - |
| 1777504757 | 1.67° C | 53% | 1033.4 hPa | - | - | - | - |
| 1777503856 | 2.22° C | 53% | 1033.5 hPa | - | - | - | - |
| 1777502956 | 2.22° C | 52% | 1033.4 hPa | - | - | - | - |
* Rain since midnight (hover to see other rain measurements)
** Current wind speed in m/s (hover to see current wind gust speed)